Mauldin, SC (29662)

7:45 AM EDT on July 24, 2016 (GMT -0400)
Forrester Woods | | Change Station

Elev 909 ft 34.80 °N, 82.29 °W | Updated 15 minutes ago

Clear
Clear
72.3 °F
Feels Like 72.3 °F
N
0.0
Wind Variable Wind from SSW

Today
High -- | Low -- °F
--% Chance of Precip.
Yesterday
High -- | Low -- °F
Precip. -- in
Pressure 30.04 in
Visibility 5.0 miles
Clouds Clear
Dew Point 72 °F
Humidity 98%
Rainfall 0.00 in
Snow Depth Not available.
6:33 AM 8:37 PM
Waning Gibbous, 77% visible
METAR KGYH 241047Z 00000KT 5SM BR CLR 22/22 A3004 RMK SHALLOW GROUND FOG
Pressure 30.04 in
Visibility 5.0 miles
Clouds Clear
Dew Point 72 °F
Humidity 98%
Rainfall 0.00 in
Snow Depth Not available.
6:33 AM 8:37 PM
Waning Gibbous, 77% visible
METAR KGYH 241047Z 00000KT 5SM BR CLR 22/22 A3004 RMK SHALLOW GROUND FOG

10-Day Weather Forecast

Almanac

Astronomy

Jul. 24, 2016 Rise Set
Actual Time
Civil Twilight
Nautical Twilight
Astronomical Twilight
Moon
Length of Visible Light
Length of Day
Tomorrow will be .
, % of the Moon is Illuminated

Today's Extremes

State Highs State Lows

Community

WunderPhotos

Upload Photos

1,927,049 photos uploaded!

WunderBlog® & News

Nearby

Air Quality

  Air Quality AQ Index Pollutant
Not available.

Snow Depth

Station Depth Elevation

Earthquake Activity

City Distance Mag. Time & Date
Minimum magnitude displayed is 2.5.

Coastal Water Temperatures

Place Temperature

Stations

Nearby Weather Stations

Station Location Temp. Windchill Dew Point Humidity Wind Precip. Elev Updated Type
                   

Watches & Warnings

There are currently no watches in effect.